Track Колодяжный Антон

Time Latitude Longitude Accuracy (66% radius in meters) Altitude (meters) Speed (km/hour) Bearing (degrees) Battery (%) GPS flag
10:08:27 44.558977 38.197404 16 89.868005212799 0.52720934152603 162.1498260498 57 1 delete
10:08:15 44.558970 38.197371 8 90.046430011425 0 162.1498260498 57 1 delete
10:08:03 44.558970 38.197371 8 89.730812369801 0 162.1498260498 57 1 delete
10:07:54 44.558970 38.197371 6 89.559306570091 0 162.1498260498 57 1 delete
10:07:42 44.558970 38.197371 8 89.267955236485 0 162.1498260498 57 1 delete
10:07:30 44.558970 38.197371 8 89.230340483755 0 162.1498260498 57 1 delete
10:07:18 44.558970 38.197371 6 89.270898414628 0 162.1498260498 57 1 delete
10:07:06 44.558970 38.197371 12 89.227117174731 0 162.1498260498 57 1 delete
10:06:58 44.558970 38.197371 8 89.175490486434 0 162.1498260498 57 1 delete
10:06:46 44.558970 38.197371 8 89.441093831004 0 162.1498260498 57 1 delete
10:06:34 44.558970 38.197371 12 89.490282507085 0 162.1498260498 57 1 delete
10:06:19 44.558970 38.197371 8 89.366144880448 0 162.1498260498 57 1 delete
10:06:07 44.558970 38.197371 8 89.193604344789 0.0015541277825832 162.1498260498 57 1 delete
10:05:58 44.558970 38.197371 16 89.070283712733 0 162.1498260498 57 1 delete
10:05:46 44.558982 38.197361 16 88.960745374284 0.0014088156167418 300.64831542969 57 1 delete
10:05:34 44.558984 38.197376 8 89.874055811027 0.19454404711723 9.0125179290771 57 1 delete
10:05:19 44.558984 38.197392 8 91.308657779054 0.020609864965081 208.27453613281 57 1 delete
10:05:10 44.558940 38.197429 16 92.113269341106 0.4323827624321 157.45422363281 57 1 delete
10:05:07 44.558934 38.197431 6 92.342283898885 0.025394218042493 311.79351806641 57 1 delete
10:04:58 44.558921 38.197495 8 92.304344571927 0.81913441419601 142.5959777832 57 1 delete
10:04:52 44.558972 38.197531 8 92.315995261964 1.452353477478 191.23347473145 57 1 delete
10:04:46 44.559049 38.197576 6 92.491389982584 1.6870532035828 190.49531555176 57 1 delete
10:04:43 44.559108 38.197596 8 92.644504848458 1.8520216941833 193.6184387207 57 1 delete
10:04:40 44.559192 38.197636 6 92.977662907283 1.970538854599 192.27731323242 57 1 delete
10:04:37 44.559274 38.197674 6 93.521518663434 1.9142682552338 195.69401550293 57 1 delete
10:04:34 44.559359 38.197715 8 94.170927947072 1.8556846380234 185.77490234375 57 1 delete
10:04:31 44.559439 38.197719 8 94.625402884357 1.8269309997559 178.05209350586 57 1 delete
10:04:25 44.559519 38.197699 8 95.820003713002 2.2958595752716 174.25091552734 57 1 delete
10:04:22 44.559571 38.197698 8 96.67195645437 2.4682931900024 198.50051879883 57 1 delete
10:04:19 44.559639 38.197732 12 97.57685142297 2.4510214328766 193.65788269043 57 1 delete
10:04:16 44.559718 38.197771 8 98.545565775575 2.3297510147095 210.43757629395 57 1 delete
10:04:13 44.559784 38.197827 8 99.384967781199 2.2415235042572 208.99543762207 57 1 delete
10:04:10 44.559857 38.197892 8 100.17212414786 2.1004722118378 218.03765869141 57 1 delete
10:04:07 44.559911 38.197956 8 100.91563649196 2.0888149738312 230.35070800781 57 1 delete
10:04:04 44.559960 38.198041 12 101.64491654071 2.1281404495239 226.97813415527 57 1 delete
10:04:01 44.560018 38.198089 16 102.39869073264 1.8310836553574 204.7237701416 57 1 delete
10:03:58 44.560097 38.198147 12 102.72565890684 1.1031703948975 177.09487915039 57 1 delete
10:03:55 44.560158 38.198157 12 102.99866185157 0.72753727436066 199.36225891113 57 1 delete
10:03:52 44.560188 38.198177 12 103.50860852873 1.5507652759552 178.58662414551 57 1 delete
10:03:49 44.560236 38.198213 12 104.13831854694 1.5282953977585 210.51016235352 57 1 delete
10:03:43 44.560239 38.198331 8 105.58166342884 1.5529106855392 291.75506591797 57 1 delete
10:03:40 44.560250 38.198397 12 105.99511114665 1.6308165788651 228.08615112305 57 1 delete
10:03:37 44.560281 38.198481 8 106.37078639019 1.3107199668884 261.29876708984 57 1 delete
10:03:31 44.560282 38.198554 8 106.73956912366 1.0427095890045 204.88519287109 57 1 delete
10:03:19 44.560299 38.198607 12 107.55709060594 0.34662735462189 331.07061767578 57 1 delete
10:03:07 44.560271 38.198590 8 110.87443915191 0.77363508939743 14.811658859253 57 1 delete
10:02:58 44.560227 38.198565 16 112.83514075531 0.40386986732483 262.73016357422 57 1 delete
10:02:55 44.560220 38.198574 12 113.4306127724 0.99977791309357 252.86590576172 57 1 delete
10:02:52 44.560234 38.198628 8 114.07529485439 0.87496560811996 229.62355041504 57 1 delete
10:02:46 44.560234 38.198726 8 114.9672774217 0.99416130781174 260.68286132812 57 1 delete